createdAt,value
2018-02-21T00:01:37.418Z,46.73
2018-02-21T00:04:04.998Z,48.63
2018-02-21T00:06:32.524Z,48.20
2018-02-21T00:09:00.197Z,48.90
2018-02-21T00:11:27.757Z,49.60
2018-02-21T00:13:55.318Z,52.80
2018-02-21T00:16:23.625Z,48.43
2018-02-21T00:18:51.974Z,50.13
2018-02-21T00:21:19.555Z,47.83
2018-02-21T00:23:47.130Z,50.97
2018-02-21T00:26:14.733Z,51.90
2018-02-21T00:28:43.058Z,51.53
2018-02-21T00:31:10.801Z,50.87
2018-02-21T00:33:38.423Z,48.17
2018-02-21T00:36:06.241Z,49.93
2018-02-21T00:38:34.628Z,49.73
2018-02-21T00:41:02.229Z,52.60
2018-02-21T00:43:29.885Z,47.03
2018-02-21T00:45:58.217Z,49.10
2018-02-21T00:48:25.724Z,44.20
2018-02-21T00:50:53.328Z,53.17
2018-02-21T00:53:20.878Z,47.97
2018-02-21T00:55:49.289Z,52.30
2018-02-21T00:58:16.837Z,47.27
2018-02-21T01:00:44.391Z,52.30
2018-02-21T01:03:12.209Z,47.17
2018-02-21T01:05:39.810Z,47.47
2018-02-21T01:08:07.362Z,50.53
2018-02-21T01:10:35.024Z,52.60
2018-02-21T01:13:02.621Z,48.20
2018-02-21T01:15:30.174Z,52.03
2018-02-21T01:17:58.488Z,50.87
2018-02-21T01:20:26.212Z,50.53
2018-02-21T01:22:53.737Z,47.60
2018-02-21T01:25:21.295Z,49.97
2018-02-21T01:27:48.868Z,49.10
2018-02-21T01:30:16.391Z,49.73
2018-02-21T01:32:44.022Z,56.43
2018-02-21T01:35:11.575Z,55.50
2018-02-21T01:37:39.168Z,60.77
2018-02-21T01:40:06.735Z,55.83
2018-02-21T01:42:34.295Z,52.27
2018-02-21T01:45:01.838Z,53.07
2018-02-21T01:47:29.391Z,57.60
2018-02-21T01:49:56.981Z,62.67
2018-02-21T01:52:24.545Z,52.07
2018-02-21T01:54:52.861Z,52.97
2018-02-21T01:57:21.189Z,54.20
2018-02-21T01:59:48.771Z,53.90
2018-02-21T02:02:16.360Z,54.57
2018-02-21T02:04:43.888Z,54.97
2018-02-21T02:07:11.429Z,53.13
2018-02-21T02:09:39.841Z,50.47
2018-02-21T02:12:07.399Z,59.03
2018-02-21T02:14:35.695Z,52.43
2018-02-21T02:17:04.017Z,52.53
2018-02-21T02:19:31.542Z,54.83
2018-02-21T02:21:59.845Z,53.23
2018-02-21T02:24:34.062Z,51.30
2018-02-21T02:27:02.423Z,55.07
2018-02-21T02:29:29.958Z,53.83
2018-02-21T02:31:57.534Z,56.20
2018-02-21T02:34:25.087Z,57.57
2018-02-21T02:36:52.684Z,53.43
2018-02-21T02:39:32.245Z,49.37
2018-02-21T02:41:59.792Z,52.00
2018-02-21T02:44:27.373Z,51.97
2018-02-21T02:46:55.003Z,50.63
2018-02-21T02:49:22.566Z,53.40
2018-02-21T02:51:50.138Z,53.27
2018-02-21T02:54:19.208Z,51.63
2018-02-21T02:56:46.789Z,50.97
2018-02-21T02:59:14.344Z,50.70
2018-02-21T03:01:41.923Z,51.50
2018-02-21T03:04:09.465Z,49.57
2018-02-21T03:06:37.053Z,50.57
2018-02-21T03:09:04.579Z,55.37
2018-02-21T03:11:32.181Z,52.43
2018-02-21T03:14:00.498Z,53.43
2018-02-21T03:16:28.069Z,55.20
2018-02-21T03:18:55.597Z,51.33
2018-02-21T03:21:23.196Z,57.60
2018-02-21T03:23:50.752Z,56.43
2018-02-21T03:26:19.114Z,55.70
2018-02-21T03:28:47.022Z,57.30
2018-02-21T03:31:15.341Z,55.70
2018-02-21T03:33:42.910Z,56.77
2018-02-21T03:36:10.473Z,54.13
2018-02-21T03:38:38.244Z,54.67
2018-02-21T03:41:06.541Z,57.83
2018-02-21T03:43:34.098Z,55.10
2018-02-21T03:46:02.398Z,60.10
2018-02-21T03:48:30.724Z,57.40
2018-02-21T03:50:58.400Z,60.53
2018-02-21T03:53:25.951Z,58.20
2018-02-21T03:55:53.517Z,57.70
2018-02-21T03:58:21.085Z,61.10
2018-02-21T04:00:48.675Z,55.73
2018-02-21T04:03:16.271Z,59.27
2018-02-21T04:05:44.064Z,59.63
2018-02-21T04:08:11.608Z,65.80
2018-02-21T04:10:39.124Z,56.63
2018-02-21T04:13:07.450Z,57.60
2018-02-21T04:15:34.978Z,61.17
2018-02-21T04:18:02.510Z,60.17
2018-02-21T04:20:30.054Z,57.17
2018-02-21T04:22:57.602Z,57.77
2018-02-21T04:25:25.904Z,55.87
2018-02-21T04:27:54.220Z,62.63
2018-02-21T04:30:21.776Z,64.30
2018-02-21T04:32:49.297Z,66.47
2018-02-21T04:35:16.901Z,69.80
2018-02-21T04:37:44.490Z,63.57
2018-02-21T04:40:12.262Z,70.33
2018-02-21T04:42:40.667Z,69.43
2018-02-21T04:45:08.263Z,64.67
2018-02-21T04:47:35.832Z,67.87
2018-02-21T04:50:03.397Z,68.63
2018-02-21T04:52:30.963Z,69.87
2018-02-21T04:58:13.814Z,64.97
2018-02-21T05:00:41.309Z,66.63
2018-02-21T05:03:08.792Z,69.20
2018-02-21T05:05:36.271Z,63.57
2018-02-21T05:08:03.744Z,68.80
2018-02-21T05:10:31.219Z,62.80
2018-02-21T05:12:58.696Z,58.57
2018-02-21T05:15:26.175Z,60.73
2018-02-21T05:17:53.651Z,57.87
2018-02-21T05:20:21.115Z,54.23
2018-02-21T05:22:48.600Z,54.20
2018-02-21T05:25:16.088Z,56.30
2018-02-21T05:27:44.327Z,52.60
2018-02-21T05:30:11.796Z,52.00
2018-02-21T05:32:39.275Z,48.87
2018-02-21T05:35:06.748Z,51.90
2018-02-21T05:37:34.233Z,45.23
2018-02-21T05:40:01.707Z,52.43
2018-02-21T05:42:29.948Z,51.87
2018-02-21T05:44:57.437Z,55.20
2018-02-21T05:47:24.919Z,54.30
2018-02-21T05:49:52.390Z,52.37
2018-02-21T05:52:19.880Z,53.20
2018-02-21T05:54:47.362Z,49.23
2018-02-21T05:57:15.613Z,47.10
2018-02-21T05:59:43.101Z,48.33
2018-02-21T06:02:10.568Z,51.40
2018-02-21T06:04:38.043Z,56.80
2018-02-21T06:07:05.506Z,58.73
2018-02-21T06:09:32.984Z,59.50
2018-02-21T06:12:00.455Z,56.47
2018-02-21T06:14:27.925Z,57.67
2018-02-21T06:16:55.390Z,60.90
2018-02-21T06:19:22.881Z,64.57
2018-02-21T06:21:51.112Z,56.93
2018-02-21T06:24:18.603Z,61.20
2018-02-21T06:26:46.080Z,62.90
2018-02-21T06:29:13.559Z,63.83
2018-02-21T06:31:41.034Z,62.27
2018-02-21T06:34:08.507Z,70.13
2018-02-21T06:36:36.755Z,67.50
2018-02-21T06:39:04.241Z,63.83
2018-02-21T06:41:31.711Z,67.23
2018-02-21T06:43:59.195Z,78.07
2018-02-21T06:46:26.672Z,77.20
2018-02-21T06:48:54.155Z,80.50
2018-02-21T06:51:22.526Z,80.67
2018-02-21T06:53:50.128Z,82.27
2018-02-21T06:56:17.682Z,80.80
2018-02-21T06:58:45.309Z,83.33
2018-02-21T07:01:12.883Z,75.33
2018-02-21T07:03:40.423Z,83.27
2018-02-21T07:06:07.969Z,85.87
2018-02-21T07:08:35.556Z,84.43
2018-02-21T07:11:03.129Z,74.27
2018-02-21T07:13:30.668Z,81.13
2018-02-21T07:15:58.217Z,82.73
2018-02-21T07:18:25.822Z,80.53
2018-02-21T07:20:53.351Z,81.83
2018-02-21T07:23:20.924Z,75.70
2018-02-21T07:25:48.496Z,80.00
2018-02-21T07:28:16.175Z,85.80
2018-02-21T07:30:44.053Z,79.23
2018-02-21T07:33:11.585Z,80.47
2018-02-21T07:35:39.199Z,84.80
2018-02-21T07:38:06.881Z,79.57
2018-02-21T07:40:34.364Z,80.77
2018-02-21T07:43:02.009Z,79.73
2018-02-21T07:45:29.660Z,70.00
2018-02-21T07:47:57.227Z,76.20
2018-02-21T07:50:31.485Z,74.10
2018-02-21T07:52:58.997Z,67.23
2018-02-21T07:55:26.624Z,80.63
2018-02-21T07:57:54.181Z,76.07
2018-02-21T08:00:21.771Z,71.73
2018-02-21T08:02:49.354Z,67.40
2018-02-21T08:05:16.937Z,73.30
2018-02-21T08:07:44.571Z,69.17
2018-02-21T08:10:12.239Z,71.47
2018-02-21T08:12:39.773Z,66.80
2018-02-21T08:15:07.412Z,71.13
2018-02-21T08:17:35.012Z,72.07
2018-02-21T08:20:02.545Z,76.27
2018-02-21T08:22:30.079Z,68.03
2018-02-21T08:24:58.380Z,70.03
2018-02-21T08:27:26.168Z,71.57
2018-02-21T08:29:53.808Z,62.83
2018-02-21T08:32:21.416Z,70.73
2018-02-21T08:34:49.817Z,67.23
2018-02-21T08:37:17.346Z,72.07
2018-02-21T08:39:44.916Z,70.90
2018-02-21T08:42:12.418Z,71.60
2018-02-21T08:44:40.738Z,75.60
2018-02-21T08:47:08.255Z,66.10
2018-02-21T08:49:35.802Z,72.53
2018-02-21T08:52:03.378Z,67.17
2018-02-21T08:54:30.918Z,68.67
2018-02-21T08:56:58.581Z,68.70
2018-02-21T08:59:26.136Z,66.37
2018-02-21T09:01:54.462Z,68.13
2018-02-21T09:04:22.034Z,68.67
2018-02-21T09:06:49.623Z,68.83
2018-02-21T09:09:17.224Z,68.70
2018-02-21T09:11:45.550Z,67.60
2018-02-21T09:14:13.124Z,69.40
2018-02-21T09:16:40.687Z,69.00
2018-02-21T09:19:08.220Z,68.93
2018-02-21T09:21:35.823Z,66.10
2018-02-21T09:24:03.360Z,63.43
2018-02-21T09:26:31.728Z,65.37
2018-02-21T09:28:59.251Z,67.87
2018-02-21T09:31:27.550Z,65.77
2018-02-21T09:33:55.090Z,59.53
2018-02-21T09:36:22.719Z,65.77
2018-02-21T09:38:50.272Z,69.23
2018-02-21T09:41:17.791Z,70.00
2018-02-21T09:43:45.362Z,61.10
2018-02-21T09:46:12.910Z,64.67
2018-02-21T09:48:40.411Z,68.47
2018-02-21T09:51:08.035Z,64.97
2018-02-21T09:53:35.572Z,64.77
2018-02-21T09:56:03.105Z,67.30
2018-02-21T09:58:30.657Z,63.70
2018-02-21T10:00:58.461Z,57.57
2018-02-21T10:03:26.002Z,59.97
2018-02-21T10:05:53.870Z,64.47
2018-02-21T10:08:21.490Z,62.00
2018-02-21T10:10:49.037Z,64.00
2018-02-21T10:13:16.593Z,61.17
2018-02-21T10:15:44.168Z,59.83
2018-02-21T10:18:11.731Z,61.07
2018-02-21T10:20:39.280Z,58.53
2018-02-21T10:23:07.622Z,58.57
2018-02-21T10:25:35.227Z,52.77
2018-02-21T10:28:02.844Z,55.10
2018-02-21T10:30:30.478Z,84.97
2018-02-21T10:32:58.051Z,57.43
2018-02-21T10:35:25.605Z,54.93
2018-02-21T10:37:53.202Z,58.83
2018-02-21T10:40:20.833Z,59.93
2018-02-21T10:42:48.397Z,64.47
2018-02-21T10:45:15.986Z,59.43
2018-02-21T10:47:43.618Z,61.87
2018-02-21T10:50:11.951Z,65.20
2018-02-21T10:52:39.510Z,59.03
2018-02-21T10:55:07.091Z,64.53
2018-02-21T10:57:34.704Z,58.50
2018-02-21T11:00:03.008Z,65.63
2018-02-21T11:02:31.276Z,65.93
2018-02-21T11:04:58.917Z,65.47
2018-02-21T11:07:26.519Z,63.73
2018-02-21T11:09:54.062Z,61.70
2018-02-21T11:12:21.640Z,64.40
2018-02-21T11:14:49.167Z,58.23
2018-02-21T11:17:17.492Z,61.27
2018-02-21T11:19:45.052Z,60.83
2018-02-21T11:22:12.607Z,59.70
2018-02-21T11:24:40.199Z,57.67
2018-02-21T11:27:07.796Z,56.03
2018-02-21T11:29:35.412Z,56.57
2018-02-21T11:32:03.769Z,63.63
2018-02-21T11:34:31.385Z,58.03
2018-02-21T11:36:59.671Z,62.27
2018-02-21T11:39:27.199Z,61.37
2018-02-21T11:41:54.753Z,63.33
2018-02-21T11:44:22.292Z,64.07
2018-02-21T11:46:49.859Z,54.97
2018-02-21T11:49:18.384Z,60.80
2018-02-21T11:51:45.909Z,56.07
2018-02-21T11:54:13.637Z,58.00
2018-02-21T11:56:41.202Z,54.43
2018-02-21T11:59:08.851Z,60.50
2018-02-21T12:01:37.141Z,57.73
2018-02-21T12:04:04.691Z,57.80
2018-02-21T12:06:33.008Z,60.47
2018-02-21T12:09:00.655Z,60.67
2018-02-21T12:11:28.977Z,57.47
2018-02-21T12:13:56.616Z,60.07
2018-02-21T12:16:24.176Z,56.60
2018-02-21T12:18:51.714Z,56.63
2018-02-21T12:21:19.254Z,54.53
2018-02-21T12:23:46.904Z,54.50
2018-02-21T12:26:15.205Z,59.80
2018-02-21T12:28:43.584Z,51.43
2018-02-21T12:31:11.170Z,55.20
2018-02-21T12:33:39.494Z,53.07
2018-02-21T12:36:07.043Z,52.90
2018-02-21T12:38:35.362Z,53.30
2018-02-21T12:41:08.518Z,49.90
2018-02-21T12:43:36.851Z,50.27
2018-02-21T12:46:04.759Z,55.47
2018-02-21T12:48:32.276Z,55.30
2018-02-21T12:51:00.597Z,56.07
2018-02-21T12:53:28.301Z,52.07
2018-02-21T12:55:55.852Z,53.03
2018-02-21T12:58:23.436Z,54.03
2018-02-21T13:00:51.035Z,54.77
2018-02-21T13:03:18.565Z,53.27
2018-02-21T13:05:46.117Z,52.67
2018-02-21T13:08:13.669Z,50.03
2018-02-21T13:10:41.240Z,48.27
2018-02-21T13:13:09.548Z,49.60
2018-02-21T13:15:37.164Z,52.80
2018-02-21T13:18:04.827Z,51.27
2018-02-21T13:20:32.373Z,56.93
2018-02-21T13:23:00.026Z,53.00
2018-02-21T13:25:28.398Z,50.47
2018-02-21T13:27:56.731Z,52.97
2018-02-21T13:30:24.375Z,47.80
2018-02-21T13:32:51.938Z,48.13
2018-02-21T13:35:19.487Z,50.53
2018-02-21T13:37:47.099Z,55.13
2018-02-21T13:40:14.592Z,51.67
2018-02-21T13:42:42.172Z,52.70
2018-02-21T13:45:09.777Z,47.47
2018-02-21T13:47:37.455Z,47.17
2018-02-21T13:50:04.999Z,50.10
2018-02-21T13:52:32.596Z,46.30
2018-02-21T13:55:00.190Z,51.57
2018-02-21T13:57:27.733Z,53.27
2018-02-21T13:59:55.254Z,49.67
2018-02-21T14:02:22.888Z,49.73
2018-02-21T14:04:50.508Z,47.77
2018-02-21T14:07:18.054Z,51.10
2018-02-21T14:09:46.512Z,49.50
2018-02-21T14:12:14.123Z,48.03
2018-02-21T14:14:41.970Z,50.80
2018-02-21T14:17:09.538Z,45.00
2018-02-21T14:19:37.076Z,44.63
2018-02-21T14:22:04.713Z,47.07
2018-02-21T14:24:33.044Z,44.60
2018-02-21T14:27:00.566Z,46.33
2018-02-21T14:29:28.173Z,50.70
2018-02-21T14:31:55.808Z,46.43
2018-02-21T14:34:23.356Z,51.00
2018-02-21T14:36:50.960Z,47.80
2018-02-21T14:39:18.556Z,47.67
2018-02-21T14:41:46.144Z,45.20
2018-02-21T14:44:13.747Z,44.17
2018-02-21T14:46:41.352Z,44.43
2018-02-21T14:49:08.911Z,50.87
2018-02-21T14:51:36.475Z,49.67
2018-02-21T14:54:04.852Z,44.50
2018-02-21T14:56:32.443Z,44.73
2018-02-21T14:59:00.869Z,44.47
2018-02-21T15:01:29.276Z,42.13
2018-02-21T15:03:56.887Z,43.20
2018-02-21T15:06:24.492Z,43.73
2018-02-21T15:08:52.817Z,44.93
2018-02-21T15:11:20.367Z,43.30
2018-02-21T15:13:47.971Z,47.77
2018-02-21T15:16:21.220Z,43.87
2018-02-21T15:18:48.816Z,43.27
2018-02-21T15:21:16.480Z,39.23
2018-02-21T15:23:44.028Z,41.67
2018-02-21T15:26:11.754Z,39.47
2018-02-21T15:28:39.320Z,40.33
2018-02-21T15:31:07.614Z,42.27
2018-02-21T15:33:35.199Z,39.73
2018-02-21T15:36:02.800Z,39.40
2018-02-21T15:38:30.399Z,40.63
2018-02-21T15:40:58.001Z,41.17
2018-02-21T15:43:26.314Z,40.03
2018-02-21T15:45:53.883Z,41.10
2018-02-21T15:48:21.459Z,43.13
2018-02-21T15:50:49.050Z,39.87
2018-02-21T15:53:16.592Z,40.97
2018-02-21T15:55:44.136Z,45.70
2018-02-21T15:58:11.747Z,43.97
2018-02-21T16:00:39.319Z,43.67
2018-02-21T16:03:06.844Z,43.77
2018-02-21T16:05:34.552Z,38.80
2018-02-21T16:08:02.891Z,42.07
2018-02-21T16:10:30.506Z,40.73
2018-02-21T16:12:58.803Z,43.60
2018-02-21T16:15:27.124Z,47.30
2018-02-21T16:17:54.758Z,44.53
2018-02-21T16:20:22.353Z,39.97
2018-02-21T16:22:49.908Z,43.80
2018-02-21T16:25:17.444Z,43.97
2018-02-21T16:27:44.980Z,42.77
2018-02-21T16:30:12.601Z,42.93
2018-02-21T16:32:40.147Z,45.63
2018-02-21T16:35:07.680Z,46.47
2018-02-21T16:37:35.592Z,44.63
2018-02-21T16:40:03.176Z,38.57
2018-02-21T16:42:30.835Z,41.33
2018-02-21T16:44:58.417Z,45.87
2018-02-21T16:47:26.040Z,41.67
2018-02-21T16:49:53.617Z,39.73
2018-02-21T16:52:21.357Z,41.40
2018-02-21T16:54:49.028Z,42.30
2018-02-21T16:57:16.648Z,41.00
2018-02-21T16:59:44.258Z,45.10
2018-02-21T17:02:11.900Z,43.00
2018-02-21T17:04:39.533Z,43.83
2018-02-21T17:07:07.139Z,43.73
2018-02-21T17:09:35.194Z,42.83
2018-02-21T17:12:02.770Z,44.50
2018-02-21T17:14:30.365Z,45.60
2018-02-21T17:16:58.060Z,46.67
2018-02-21T17:19:25.635Z,40.80
2018-02-21T17:21:53.196Z,45.33
2018-02-21T17:24:20.785Z,44.93
2018-02-21T17:26:48.327Z,47.43
2018-02-21T17:29:15.927Z,42.57
2018-02-21T17:31:43.491Z,42.40
2018-02-21T17:34:11.027Z,42.03
2018-02-21T17:36:39.335Z,44.87
2018-02-21T17:39:06.859Z,42.33
2018-02-21T17:41:34.431Z,40.73
2018-02-21T17:44:02.005Z,47.37
2018-02-21T17:46:29.565Z,44.93
2018-02-21T17:48:57.112Z,43.63
2018-02-21T17:51:24.687Z,47.23
2018-02-21T17:53:52.239Z,49.77
2018-02-21T17:56:19.793Z,41.80
2018-02-21T17:58:48.102Z,47.40
2018-02-21T18:01:15.622Z,48.23
2018-02-21T18:03:43.176Z,41.13
2018-02-21T18:06:10.735Z,43.90
2018-02-21T18:08:38.310Z,41.10
2018-02-21T18:11:05.870Z,39.17
2018-02-21T18:13:33.428Z,42.67
2018-02-21T18:16:00.989Z,46.77
2018-02-21T18:18:29.315Z,46.00
2018-02-21T18:20:56.873Z,39.47
2018-02-21T18:23:24.419Z,44.17
2018-02-21T18:25:53.076Z,39.03
2018-02-21T18:28:20.747Z,41.20
2018-02-21T18:30:48.321Z,38.53
2018-02-21T18:33:15.867Z,40.23
2018-02-21T18:35:43.458Z,38.03
2018-02-21T18:38:11.017Z,37.87
2018-02-21T18:40:38.598Z,40.03
2018-02-21T18:43:06.215Z,41.47
2018-02-21T18:45:34.539Z,38.77
2018-02-21T18:48:02.079Z,35.33
2018-02-21T18:50:29.609Z,34.40
2018-02-21T18:52:57.262Z,35.43
2018-02-21T18:55:24.815Z,41.47
2018-02-21T18:57:52.384Z,41.47
2018-02-21T19:00:20.669Z,36.27
2018-02-21T19:02:49.214Z,38.80
2018-02-21T19:05:16.817Z,36.03
2018-02-21T19:07:44.461Z,34.57
2018-02-21T19:10:12.053Z,33.13
2018-02-21T19:12:39.664Z,39.20
2018-02-21T19:15:07.232Z,35.57
2018-02-21T19:17:35.593Z,39.83
2018-02-21T19:20:03.165Z,39.47
2018-02-21T19:22:30.713Z,38.83
2018-02-21T19:24:58.255Z,37.20
2018-02-21T19:27:25.834Z,38.13
2018-02-21T19:29:53.413Z,35.50
2018-02-21T19:32:20.936Z,38.23
2018-02-21T19:34:48.480Z,39.30
2018-02-21T19:37:16.091Z,35.33
2018-02-21T19:39:43.600Z,37.80
2018-02-21T19:42:11.189Z,39.67
2018-02-21T19:44:38.748Z,38.40
2018-02-21T19:47:06.327Z,40.83
2018-02-21T19:49:33.955Z,47.23
2018-02-21T19:52:02.320Z,43.50
2018-02-21T19:54:30.479Z,39.07
2018-02-21T19:56:58.063Z,43.23
2018-02-21T19:59:25.632Z,35.90
2018-02-21T20:01:53.206Z,41.87
2018-02-21T20:04:20.756Z,39.43
2018-02-21T20:06:48.382Z,39.90
2018-02-21T20:09:15.924Z,35.57
2018-02-21T20:11:43.504Z,36.57
2018-02-21T20:14:11.069Z,34.97
2018-02-21T20:16:38.694Z,36.03
2018-02-21T20:19:07.008Z,30.93
2018-02-21T20:21:34.618Z,34.77
2018-02-21T20:24:02.224Z,35.53
2018-02-21T20:26:30.566Z,35.70
2018-02-21T20:28:58.140Z,32.63
2018-02-21T20:31:25.740Z,36.80
2018-02-21T20:33:53.328Z,37.63
2018-02-21T20:36:21.709Z,34.37
2018-02-21T20:38:50.077Z,35.27
2018-02-21T20:41:17.621Z,35.47
2018-02-21T20:43:45.228Z,37.47
2018-02-21T20:46:12.826Z,36.40
2018-02-21T20:48:41.196Z,39.77
2018-02-21T20:51:09.514Z,38.50
2018-02-21T20:53:37.868Z,35.53
2018-02-21T20:56:05.442Z,39.17
2018-02-21T20:58:34.497Z,39.40
2018-02-21T21:01:02.074Z,36.33
2018-02-21T21:03:29.609Z,37.70
2018-02-21T21:05:57.184Z,36.93
2018-02-21T21:08:25.549Z,38.57
2018-02-21T21:10:53.147Z,44.50
2018-02-21T21:13:21.600Z,40.80
2018-02-21T21:15:49.166Z,41.07
2018-02-21T21:18:16.747Z,45.47
2018-02-21T21:20:44.342Z,40.60
2018-02-21T21:23:11.883Z,37.93
2018-02-21T21:25:39.497Z,40.90
2018-02-21T21:28:07.106Z,38.30
2018-02-21T21:30:35.452Z,40.20
2018-02-21T21:33:03.014Z,36.67
2018-02-21T21:35:30.597Z,43.10
2018-02-21T21:37:58.304Z,37.60
2018-02-21T21:40:25.788Z,42.77
2018-02-21T21:42:53.964Z,38.97
2018-02-21T21:45:21.545Z,40.73
2018-02-21T21:47:49.205Z,43.13
2018-02-21T21:50:17.522Z,42.07
2018-02-21T21:52:45.100Z,39.23
2018-02-21T21:55:12.712Z,40.47
2018-02-21T21:57:40.278Z,40.07
2018-02-21T22:00:07.910Z,36.33
2018-02-21T22:02:35.522Z,43.07
2018-02-21T22:05:03.155Z,41.43
2018-02-21T22:07:30.791Z,42.40
2018-02-21T22:09:59.106Z,44.77
2018-02-21T22:12:26.658Z,42.53
2018-02-21T22:14:54.994Z,38.77
2018-02-21T22:17:22.588Z,41.13
2018-02-21T22:19:50.178Z,44.93
2018-02-21T22:22:17.768Z,40.80
2018-02-21T22:24:46.158Z,44.97
2018-02-21T22:27:14.512Z,42.00
2018-02-21T22:29:42.089Z,40.87
2018-02-21T22:32:09.658Z,38.83
2018-02-21T22:34:37.213Z,45.13
2018-02-21T22:37:04.797Z,44.93
2018-02-21T22:39:32.420Z,43.07
2018-02-21T22:41:59.996Z,44.50
2018-02-21T22:44:27.684Z,43.30
2018-02-21T22:46:55.256Z,45.67
2018-02-21T22:49:22.822Z,40.13
2018-02-21T22:51:50.401Z,42.80
2018-02-21T22:54:18.009Z,42.37
2018-02-21T22:56:45.599Z,44.80
2018-02-21T22:59:13.191Z,42.67
2018-02-21T23:01:41.570Z,43.37
2018-02-21T23:04:09.180Z,45.27
2018-02-21T23:06:36.720Z,44.70
2018-02-21T23:09:04.280Z,50.80
2018-02-21T23:11:31.874Z,43.37
2018-02-21T23:14:00.293Z,45.60
2018-02-21T23:16:27.924Z,43.97
2018-02-21T23:18:55.543Z,42.10
2018-02-21T23:21:23.130Z,45.50
2018-02-21T23:23:50.741Z,46.13
2018-02-21T23:26:18.350Z,46.90
2018-02-21T23:28:45.913Z,46.27
2018-02-21T23:31:14.290Z,46.80
2018-02-21T23:33:42.653Z,48.23
2018-02-21T23:36:10.180Z,44.33
2018-02-21T23:38:37.798Z,46.83
2018-02-21T23:41:05.416Z,45.37
2018-02-21T23:43:33.830Z,46.10
2018-02-21T23:46:01.432Z,44.63
2018-02-21T23:48:29.178Z,43.57
2018-02-21T23:50:56.860Z,45.53
2018-02-21T23:53:24.421Z,47.27
2018-02-21T23:55:52.065Z,45.93
2018-02-21T23:58:20.494Z,41.73
